Norfolk, Virginia
Traffic Map
Current Weather Conditions
Norfolk, Virginia
Clear
Clear
27°
Feels Like: 29°
Wind Chill: 27° Ceiling: Unl
Heat Index: 29° Visibility: 10mi
Dew Point: 21° Wind: 9mph
Humidity: 67% Direction: 40° (NE)
Pressure: 30.02in Gusts: 0mph
Raw Report DataKORF 241951Z 04008KT 10SM CLR 27/21 A3002 RMK AO2 SLP164 T02720206 $
Traffic Incident Summary
Active as of:
Severity:
Category:
InformationThere was an issue retrieving the traffic information for this location. Please try a different location or try again shortly.
Advertisements